Аэропорт: Стригино. Нижний Новгород

ICAO: UWGG

METAR:
2021-04-21 20:30:00
UWGG 212030Z 21004MPS 9999 -RA OVC012 06/06 Q1013 R18L/290050 NOSIG
METAR:
2021-04-21 16:55:00
TAF UWGG 211655Z 2118/2218 18003G09MPS 8000 BKN016 TX13/2212Z TN04/2206Z TEMPO 2118/2204 15008G15MPS -SHRA BKN010CB